Time;durP1;ratioP1;P1;durP2;ratioP2;P2;SDS_P1;SDS_P2;PMS_P1;PMS_P2;Temp;Humidity;BMP_temperature;BMP_pressure;BME280_temperature;BME280_humidity;BME280_pressure;Samples;Min_cycle;Max_cycle;Signal;HPM_P1;HPM_P2
2023/09/25 00:00:01;;;;;;;0.00;0.00;;;;;;;;;;1738738;28;20687;-82
2023/09/25 00:00:54;;;;;;;0.00;0.00;;;;;;;;;;1740028;28;20218;-82
2023/09/25 00:01:46;;;;;;;0.00;0.00;;;;;;;;;;1740313;28;20204;-82
2023/09/25 00:02:37;;;;;;;0.00;0.00;;;;;;;;;;1738090;28;20238;-83
2023/09/25 00:03:29;;;;;;;0.00;0.00;;;;;;;;;;1740506;28;20264;-82
2023/09/25 00:04:25;;;;;;;0.00;0.00;;;;;;;;;;1740088;28;20247;-82
2023/09/25 00:05:17;;;;;;;0.00;0.00;;;;;;;;;;1737942;28;20204;-83
2023/09/25 00:06:09;;;;;;;0.00;0.00;;;;;;;;;;1736660;28;20200;-82
2023/09/25 00:07:02;;;;;;;0.00;0.00;;;;;;;;;;1736880;28;20298;-82
2023/09/25 00:07:54;;;;;;;0.00;0.00;;;;;;;;;;1736749;28;20295;-82
2023/09/25 00:08:46;;;;;;;0.00;0.00;;;;;;;;;;1741583;28;20202;-82
2023/09/25 00:09:37;;;;;;;0.00;0.00;;;;;;;;;;1740027;28;20272;-82
2023/09/25 00:10:30;;;;;;;0.00;0.00;;;;;;;;;;1738987;28;20199;-82
2023/09/25 00:11:21;;;;;;;0.00;0.00;;;;;;;;;;1737695;28;20199;-82
2023/09/25 00:12:12;;;;;;;0.00;0.00;;;;;;;;;;1739873;28;20253;-82
2023/09/25 00:13:05;;;;;;;0.00;0.00;;;;;;;;;;1738172;28;20192;-82
2023/09/25 00:13:56;;;;;;;0.00;0.00;;;;;;;;;;1740760;28;20242;-82
2023/09/25 00:14:48;;;;;;;0.00;0.00;;;;;;;;;;1737157;28;20350;-81
2023/09/25 00:15:43;;;;;;;0.00;0.00;;;;;;;;;;1736178;28;20231;-81
2023/09/25 00:16:35;;;;;;;0.00;0.00;;;;;;;;;;1739946;28;20208;-81
2023/09/25 00:17:27;;;;;;;0.00;0.00;;;;;;;;;;1737988;28;20238;-81
2023/09/25 00:18:19;;;;;;;0.00;0.00;;;;;;;;;;1737128;28;20207;-81
2023/09/25 00:19:10;;;;;;;0.00;0.00;;;;;;;;;;1736605;28;20239;-82
2023/09/25 00:20:04;;;;;;;0.00;0.00;;;;;;;;;;1740312;28;20199;-81
2023/09/25 00:20:56;;;;;;;0.00;0.00;;;;;;;;;;1736029;28;20289;-82
2023/09/25 00:21:48;;;;;;;0.00;0.00;;;;;;;;;;1739301;28;20617;-81
2023/09/25 00:22:39;;;;;;;0.00;0.00;;;;;;;;;;1739020;28;20215;-81
2023/09/25 00:23:31;;;;;;;0.00;0.00;;;;;;;;;;1742851;28;20291;-81
2023/09/25 00:24:22;;;;;;;0.00;0.00;;;;;;;;;;1737681;28;20212;-81
2023/09/25 00:25:13;;;;;;;0.00;0.00;;;;;;;;;;1737172;28;20563;-81
2023/09/25 00:26:07;;;;;;;0.00;0.00;;;;;;;;;;1735699;28;20203;-81
2023/09/25 00:26:58;;;;;;;0.00;0.00;;;;;;;;;;1738201;28;20207;-81
2023/09/25 00:27:50;;;;;;;0.00;0.00;;;;;;;;;;1736038;28;20222;-81
2023/09/25 00:28:42;;;;;;;0.00;0.00;;;;;;;;;;1739644;28;20218;-81
2023/09/25 00:29:33;;;;;;;0.00;0.00;;;;;;;;;;1740491;28;20648;-81
2023/09/25 00:30:27;;;;;;;0.00;0.00;;;;;;;;;;1741969;28;20214;-81
2023/09/25 00:31:18;;;;;;;0.00;0.00;;;;;;;;;;1741545;28;20226;-81
2023/09/25 00:32:09;;;;;;;0.00;0.00;;;;;;;;;;1740798;28;20449;-81
2023/09/25 00:33:01;;;;;;;0.00;0.00;;;;;;;;;;1742735;28;20199;-82
2023/09/25 00:33:52;;;;;;;0.00;0.00;;;;;;;;;;1746777;28;20213;-81
2023/09/25 00:34:43;;;;;;;0.00;0.00;;;;;;;;;;1745406;28;20263;-81
2023/09/25 00:35:35;;;;;;;0.00;0.00;;;;;;;;;;1742253;28;20266;-81
2023/09/25 00:36:26;;;;;;;0.00;0.00;;;;;;;;;;1741919;28;20231;-80
2023/09/25 00:37:18;;;;;;;0.00;0.00;;;;;;;;;;1741374;28;20237;-80
2023/09/25 00:38:09;;;;;;;0.10;0.10;;;;;;;;;;1743307;28;20203;-80
2023/09/25 00:39:03;;;;;;;0.00;0.00;;;;;;;;;;1746765;28;20213;-81
2023/09/25 00:39:58;;;;;;;0.00;0.00;;;;;;;;;;1741267;28;20310;-81
2023/09/25 00:40:50;;;;;;;0.00;0.00;;;;;;;;;;1740938;28;20245;-82
2023/09/25 00:41:41;;;;;;;0.00;0.00;;;;;;;;;;1744892;28;20244;-81
2023/09/25 00:42:32;;;;;;;0.00;0.00;;;;;;;;;;1747708;28;20194;-82
2023/09/25 00:43:24;;;;;;;0.00;0.00;;;;;;;;;;1746452;28;20248;-82
2023/09/25 00:44:17;;;;;;;0.00;0.00;;;;;;;;;;1746154;28;20203;-82
2023/09/25 00:45:09;;;;;;;0.00;0.00;;;;;;;;;;1743719;28;20763;-82
2023/09/25 00:46:01;;;;;;;0.00;0.00;;;;;;;;;;1741598;28;20695;-82
2023/09/25 00:46:52;;;;;;;0.00;0.00;;;;;;;;;;1742990;28;20198;-82
2023/09/25 00:47:43;;;;;;;0.00;0.00;;;;;;;;;;1743080;28;20533;-82
2023/09/25 00:48:36;;;;;;;0.00;0.00;;;;;;;;;;1747651;28;20210;-82
2023/09/25 00:49:27;;;;;;;0.00;0.00;;;;;;;;;;1742387;28;20222;-82
2023/09/25 00:50:19;;;;;;;0.00;0.00;;;;;;;;;;1746913;28;20195;-83
2023/09/25 00:51:11;;;;;;;0.00;0.00;;;;;;;;;;1744319;28;20207;-83
2023/09/25 00:52:02;;;;;;;0.00;0.00;;;;;;;;;;1746659;28;20210;-83
2023/09/25 00:52:53;;;;;;;0.00;0.00;;;;;;;;;;1744835;28;20304;-82
2023/09/25 00:53:47;;;;;;;0.00;0.00;;;;;;;;;;1742854;28;20536;-83
2023/09/25 00:54:38;;;;;;;0.00;0.00;;;;;;;;;;1743016;28;20238;-83
2023/09/25 00:55:30;;;;;;;0.00;0.00;;;;;;;;;;1741583;28;20651;-82
2023/09/25 00:56:22;;;;;;;0.00;0.00;;;;;;;;;;1746707;28;20198;-82
2023/09/25 00:57:13;;;;;;;0.00;0.00;;;;;;;;;;1746695;28;20195;-82
2023/09/25 00:58:07;;;;;;;0.00;0.00;;;;;;;;;;1744404;28;20195;-82
2023/09/25 00:58:59;;;;;;;0.00;0.00;;;;;;;;;;1745727;28;20218;-81
2023/09/25 00:59:52;;;;;;;0.00;0.00;;;;;;;;;;1741965;28;20198;-81
2023/09/25 01:00:44;;;;;;;0.00;0.00;;;;;;;;;;1741218;28;20322;-81
2023/09/25 01:01:36;;;;;;;0.00;0.00;;;;;;;;;;1742531;28;20240;-81
2023/09/25 01:02:27;;;;;;;0.00;0.00;;;;;;;;;;1747446;28;20252;-82
2023/09/25 01:03:19;;;;;;;0.00;0.00;;;;;;;;;;1740151;28;20791;-83
2023/09/25 01:04:10;;;;;;;0.00;0.00;;;;;;;;;;1748503;28;20661;-83
2023/09/25 01:05:08;;;;;;;0.00;0.00;;;;;;;;;;1753192;28;20202;-83
2023/09/25 01:05:59;;;;;;;0.00;0.00;;;;;;;;;;1747274;28;20222;-83
2023/09/25 01:06:52;;;;;;;0.00;0.00;;;;;;;;;;1752944;28;20217;-83
2023/09/25 01:07:43;;;;;;;0.00;0.00;;;;;;;;;;1751104;28;20226;-83
2023/09/25 01:08:34;;;;;;;0.00;0.00;;;;;;;;;;1749925;28;21060;-83
2023/09/25 01:09:26;;;;;;;0.00;0.00;;;;;;;;;;1743818;28;20233;-83
2023/09/25 01:10:17;;;;;;;0.00;0.00;;;;;;;;;;1746710;28;20214;-83
2023/09/25 01:11:08;;;;;;;0.00;0.00;;;;;;;;;;1746332;28;20263;-82
2023/09/25 01:12:01;;;;;;;0.00;0.00;;;;;;;;;;1746383;28;20689;-83
2023/09/25 01:12:53;;;;;;;0.00;0.00;;;;;;;;;;1743293;28;20572;-83
2023/09/25 01:13:44;;;;;;;0.00;0.00;;;;;;;;;;1743587;28;20202;-83
2023/09/25 01:14:36;;;;;;;0.00;0.00;;;;;;;;;;1748148;28;20206;-83
2023/09/25 01:15:28;;;;;;;0.00;0.00;;;;;;;;;;1748369;28;20238;-83
2023/09/25 01:16:19;;;;;;;0.00;0.00;;;;;;;;;;1748245;28;20206;-83
2023/09/25 01:17:11;;;;;;;0.00;0.00;;;;;;;;;;1743615;28;20199;-82
2023/09/25 01:18:03;;;;;;;0.00;0.00;;;;;;;;;;1742988;28;20643;-82
2023/09/25 01:18:54;;;;;;;0.00;0.00;;;;;;;;;;1744927;28;20650;-82
2023/09/25 01:19:46;;;;;;;0.00;0.00;;;;;;;;;;1744601;28;20290;-82
2023/09/25 01:20:37;;;;;;;0.00;0.00;;;;;;;;;;1735984;28;20285;-82
2023/09/25 01:21:30;;;;;;;0.00;0.00;;;;;;;;;;1744029;28;20261;-82
2023/09/25 01:22:22;;;;;;;0.00;0.00;;;;;;;;;;1745181;28;20258;-82
2023/09/25 01:23:14;;;;;;;0.00;0.00;;;;;;;;;;1746581;28;20229;-82
2023/09/25 01:24:05;;;;;;;0.00;0.00;;;;;;;;;;1745080;28;20851;-83
2023/09/25 01:24:56;;;;;;;0.00;0.00;;;;;;;;;;1748217;28;20269;-83
2023/09/25 01:25:48;;;;;;;0.00;0.00;;;;;;;;;;1746989;28;20226;-82
2023/09/25 01:26:40;;;;;;;0.00;0.00;;;;;;;;;;1748664;28;20206;-83
2023/09/25 01:27:31;;;;;;;0.00;0.00;;;;;;;;;;1742913;28;20199;-83
2023/09/25 01:28:23;;;;;;;0.00;0.00;;;;;;;;;;1749999;28;20202;-83
2023/09/25 01:29:17;;;;;;;0.00;0.00;;;;;;;;;;1747563;28;20234;-84
2023/09/25 01:30:10;;;;;;;0.00;0.00;;;;;;;;;;1746178;28;20252;-84
2023/09/25 01:31:01;;;;;;;0.00;0.00;;;;;;;;;;1743997;28;20250;-84
2023/09/25 01:31:52;;;;;;;0.00;0.00;;;;;;;;;;1743802;28;20261;-84
2023/09/25 01:32:45;;;;;;;0.00;0.00;;;;;;;;;;1748198;28;20210;-82
2023/09/25 01:33:36;;;;;;;0.00;0.00;;;;;;;;;;1742756;28;20210;-82
2023/09/25 01:34:27;;;;;;;0.00;0.00;;;;;;;;;;1744361;28;20258;-82
2023/09/25 01:35:19;;;;;;;0.00;0.00;;;;;;;;;;1746966;28;20194;-82
2023/09/25 01:36:11;;;;;;;0.00;0.00;;;;;;;;;;1743897;28;20214;-81
2023/09/25 01:37:05;;;;;;;0.00;0.00;;;;;;;;;;1743683;28;20225;-81
2023/09/25 01:37:58;;;;;;;0.00;0.00;;;;;;;;;;1746028;28;20652;-82
2023/09/25 01:38:50;;;;;;;0.00;0.00;;;;;;;;;;1742757;28;20266;-83
2023/09/25 01:39:42;;;;;;;0.00;0.00;;;;;;;;;;1746114;28;20221;-83
2023/09/25 01:40:33;;;;;;;0.00;0.00;;;;;;;;;;1741922;28;20249;-84
2023/09/25 01:41:25;;;;;;;0.00;0.00;;;;;;;;;;1748460;28;20737;-84
2023/09/25 01:42:17;;;;;;;0.00;0.00;;;;;;;;;;1741988;28;20200;-84
2023/09/25 01:43:08;;;;;;;0.00;0.00;;;;;;;;;;1744951;28;20216;-84
2023/09/25 01:44:00;;;;;;;0.00;0.00;;;;;;;;;;1743642;28;20218;-84
2023/09/25 01:44:51;;;;;;;0.00;0.00;;;;;;;;;;1743034;28;20257;-82
2023/09/25 01:45:43;;;;;;;0.00;0.00;;;;;;;;;;1741483;28;20302;-82
2023/09/25 01:46:34;;;;;;;0.00;0.00;;;;;;;;;;1748915;28;20293;-82
2023/09/25 01:47:25;;;;;;;0.00;0.00;;;;;;;;;;1748729;28;20201;-82
2023/09/25 01:48:17;;;;;;;0.00;0.00;;;;;;;;;;1745248;28;20206;-82
2023/09/25 01:49:08;;;;;;;0.00;0.00;;;;;;;;;;1746932;28;20240;-82
2023/09/25 01:49:59;;;;;;;0.00;0.00;;;;;;;;;;1742836;28;20209;-83
2023/09/25 01:50:51;;;;;;;0.00;0.00;;;;;;;;;;1745723;28;20319;-82
2023/09/25 01:51:44;;;;;;;0.00;0.00;;;;;;;;;;1742929;28;20229;-83
2023/09/25 01:52:35;;;;;;;0.00;0.00;;;;;;;;;;1742327;28;20206;-82
2023/09/25 01:53:28;;;;;;;0.00;0.00;;;;;;;;;;1745950;28;20289;-82
2023/09/25 01:54:19;;;;;;;0.00;0.00;;;;;;;;;;1742550;28;20210;-82
2023/09/25 01:55:10;;;;;;;0.00;0.00;;;;;;;;;;1747868;28;20194;-84
2023/09/25 01:56:10;;;;;;;0.00;0.00;;;;;;;;;;1745879;28;20230;-83
2023/09/25 01:57:01;;;;;;;0.00;0.00;;;;;;;;;;1744464;28;20218;-82
2023/09/25 01:57:53;;;;;;;0.00;0.00;;;;;;;;;;1742616;28;20203;-82
2023/09/25 01:58:44;;;;;;;0.00;0.00;;;;;;;;;;1747387;28;20229;-82
2023/09/25 01:59:35;;;;;;;0.00;0.00;;;;;;;;;;1745221;28;20212;-83
2023/09/25 02:00:27;;;;;;;0.00;0.00;;;;;;;;;;1742385;28;20229;-83
2023/09/25 02:01:19;;;;;;;0.00;0.00;;;;;;;;;;1746400;28;20217;-83
2023/09/25 02:02:10;;;;;;;0.00;0.00;;;;;;;;;;1742440;28;20225;-82
2023/09/25 02:03:02;;;;;;;0.00;0.00;;;;;;;;;;1744072;28;20202;-82
2023/09/25 02:03:53;;;;;;;0.00;0.00;;;;;;;;;;1742663;28;20245;-83
2023/09/25 02:04:44;;;;;;;0.00;0.00;;;;;;;;;;1738337;28;20215;-83
2023/09/25 02:05:36;;;;;;;0.00;0.00;;;;;;;;;;1738421;28;20245;-83
2023/09/25 02:06:27;;;;;;;0.00;0.00;;;;;;;;;;1745886;28;20206;-83
2023/09/25 02:07:18;;;;;;;0.00;0.00;;;;;;;;;;1746885;28;20198;-82
2023/09/25 02:08:10;;;;;;;0.00;0.00;;;;;;;;;;1747387;28;20224;-83
2023/09/25 02:09:03;;;;;;;0.00;0.00;;;;;;;;;;1747741;28;20659;-83
2023/09/25 02:09:54;;;;;;;0.00;0.00;;;;;;;;;;1747223;28;20414;-83
2023/09/25 02:10:46;;;;;;;0.00;0.00;;;;;;;;;;1747415;28;20225;-84
2023/09/25 02:11:37;;;;;;;0.00;0.00;;;;;;;;;;1746334;28;20236;-84
2023/09/25 02:12:29;;;;;;;0.00;0.00;;;;;;;;;;1742226;28;20687;-83
2023/09/25 02:13:21;;;;;;;0.00;0.00;;;;;;;;;;1742466;28;20213;-84
2023/09/25 02:14:12;;;;;;;0.00;0.00;;;;;;;;;;1742504;28;20214;-83
2023/09/25 02:15:05;;;;;;;0.00;0.00;;;;;;;;;;1744317;28;20525;-82
2023/09/25 02:15:57;;;;;;;0.00;0.00;;;;;;;;;;1743313;28;20322;-84
2023/09/25 02:16:48;;;;;;;0.00;0.00;;;;;;;;;;1751028;28;20206;-84
2023/09/25 02:17:41;;;;;;;0.00;0.00;;;;;;;;;;1749872;28;20206;-84
2023/09/25 02:18:32;;;;;;;0.00;0.00;;;;;;;;;;1749089;28;20194;-85
2023/09/25 02:19:25;;;;;;;0.00;0.00;;;;;;;;;;1744092;28;20199;-84
2023/09/25 02:20:19;;;;;;;0.00;0.00;;;;;;;;;;1743647;28;20526;-85
2023/09/25 02:21:11;;;;;;;0.00;0.00;;;;;;;;;;1743462;28;20226;-85
2023/09/25 02:22:06;;;;;;;0.00;0.00;;;;;;;;;;1744188;28;20198;-85
2023/09/25 02:22:58;;;;;;;0.00;0.00;;;;;;;;;;1745577;28;20195;-85
2023/09/25 02:23:49;;;;;;;0.00;0.00;;;;;;;;;;1746425;28;20213;-85
2023/09/25 02:24:42;;;;;;;0.00;0.00;;;;;;;;;;1744967;28;20187;-84
2023/09/25 02:25:34;;;;;;;0.00;0.00;;;;;;;;;;1745922;28;20205;-85
2023/09/25 02:26:25;;;;;;;0.00;0.00;;;;;;;;;;1742432;28;20226;-84
2023/09/25 02:27:16;;;;;;;0.00;0.00;;;;;;;;;;1745884;28;20238;-83
2023/09/25 02:28:08;;;;;;;0.00;0.00;;;;;;;;;;1748003;28;20198;-82
2023/09/25 02:28:59;;;;;;;0.00;0.00;;;;;;;;;;1743471;28;20198;-82
2023/09/25 02:29:50;;;;;;;0.00;0.00;;;;;;;;;;1736105;28;20689;-82
2023/09/25 02:30:42;;;;;;;0.00;0.00;;;;;;;;;;1734786;28;20227;-83
2023/09/25 02:31:33;;;;;;;0.00;0.00;;;;;;;;;;1737830;28;20262;-82
2023/09/25 02:32:24;;;;;;;0.00;0.00;;;;;;;;;;1737528;28;20227;-83
2023/09/25 02:33:16;;;;;;;0.00;0.00;;;;;;;;;;1737970;28;20208;-83
2023/09/25 02:34:14;;;;;;;0.00;0.00;;;;;;;;;;1743223;28;20217;-83
2023/09/25 02:35:07;;;;;;;0.00;0.00;;;;;;;;;;1736879;28;20219;-80
2023/09/25 02:36:05;;;;;;;0.00;0.00;;;;;;;;;;1727780;28;20331;-81
2023/09/25 02:36:56;;;;;;;0.00;0.00;;;;;;;;;;1738632;28;20580;-81
2023/09/25 02:37:48;;;;;;;0.00;0.00;;;;;;;;;;1735808;28;20230;-81
2023/09/25 02:38:39;;;;;;;0.00;0.00;;;;;;;;;;1733475;28;20269;-81
2023/09/25 02:39:31;;;;;;;0.00;0.00;;;;;;;;;;1737322;28;20203;-81
2023/09/25 02:40:24;;;;;;;0.00;0.00;;;;;;;;;;1734675;28;20203;-81
2023/09/25 02:41:15;;;;;;;0.00;0.00;;;;;;;;;;1737762;28;20639;-81
2023/09/25 02:42:07;;;;;;;0.00;0.00;;;;;;;;;;1735391;28;20204;-81
2023/09/25 02:43:00;;;;;;;0.00;0.00;;;;;;;;;;1735466;28;20206;-81
2023/09/25 02:43:51;;;;;;;0.00;0.00;;;;;;;;;;1734458;28;20211;-81
2023/09/25 02:44:42;;;;;;;0.00;0.00;;;;;;;;;;1737835;28;20213;-82
2023/09/25 02:45:34;;;;;;;0.00;0.00;;;;;;;;;;1733820;28;20227;-82
2023/09/25 02:46:25;;;;;;;0.00;0.00;;;;;;;;;;1736451;28;20212;-82
2023/09/25 02:47:16;;;;;;;0.00;0.00;;;;;;;;;;1735732;28;20942;-82
2023/09/25 02:48:08;;;;;;;0.00;0.00;;;;;;;;;;1733924;28;20196;-82
2023/09/25 02:48:59;;;;;;;0.00;0.00;;;;;;;;;;1734914;28;20203;-81
2023/09/25 02:49:51;;;;;;;0.00;0.00;;;;;;;;;;1733934;28;20208;-81
2023/09/25 02:50:42;;;;;;;0.00;0.00;;;;;;;;;;1734372;28;20269;-81
2023/09/25 02:51:33;;;;;;;0.00;0.00;;;;;;;;;;1733322;28;20299;-81
2023/09/25 02:52:26;;;;;;;0.00;0.00;;;;;;;;;;1735707;28;20210;-81
2023/09/25 02:53:17;;;;;;;0.00;0.00;;;;;;;;;;1735761;28;20227;-81
2023/09/25 02:54:08;;;;;;;0.00;0.00;;;;;;;;;;1733465;28;20227;-80
2023/09/25 02:55:00;;;;;;;0.00;0.00;;;;;;;;;;1734018;28;20307;-82
2023/09/25 02:55:52;;;;;;;0.00;0.00;;;;;;;;;;1733134;28;20931;-81
2023/09/25 02:56:43;;;;;;;0.00;0.00;;;;;;;;;;1737756;28;20811;-81
2023/09/25 02:57:35;;;;;;;0.00;0.00;;;;;;;;;;1736350;28;20295;-81
2023/09/25 02:58:26;;;;;;;0.00;0.00;;;;;;;;;;1736603;28;20238;-80
2023/09/25 02:59:17;;;;;;;0.00;0.00;;;;;;;;;;1734785;28;20234;-81
2023/09/25 03:00:11;;;;;;;0.00;0.00;;;;;;;;;;1735427;28;20282;-81
2023/09/25 03:01:02;;;;;;;0.00;0.00;;;;;;;;;;1733624;28;20235;-81
2023/09/25 03:01:53;;;;;;;0.00;0.00;;;;;;;;;;1735428;28;20208;-81
2023/09/25 03:02:45;;;;;;;0.00;0.00;;;;;;;;;;1739312;28;20644;-81
2023/09/25 03:03:36;;;;;;;0.00;0.00;;;;;;;;;;1737324;28;20920;-81
2023/09/25 03:04:28;;;;;;;0.00;0.00;;;;;;;;;;1735911;28;20302;-81
2023/09/25 03:05:19;;;;;;;0.00;0.00;;;;;;;;;;1741126;28;20557;-81
2023/09/25 03:06:11;;;;;;;0.00;0.00;;;;;;;;;;1737840;28;20502;-81
2023/09/25 03:07:02;;;;;;;0.00;0.00;;;;;;;;;;1737858;28;20690;-81
2023/09/25 03:07:53;;;;;;;0.00;0.00;;;;;;;;;;1735955;28;20207;-80
2023/09/25 03:08:46;;;;;;;0.00;0.00;;;;;;;;;;1741226;28;20524;-80
2023/09/25 03:09:37;;;;;;;0.00;0.00;;;;;;;;;;1737583;28;20239;-80
2023/09/25 03:10:29;;;;;;;0.00;0.00;;;;;;;;;;1736678;28;20637;-81
2023/09/25 03:11:21;;;;;;;0.00;0.00;;;;;;;;;;1736578;28;20632;-81
2023/09/25 03:12:12;;;;;;;0.00;0.00;;;;;;;;;;1738563;28;20291;-81
2023/09/25 03:13:04;;;;;;;0.00;0.00;;;;;;;;;;1739430;28;20299;-81
2023/09/25 03:13:55;;;;;;;0.00;0.00;;;;;;;;;;1742573;28;20211;-81
2023/09/25 03:14:46;;;;;;;0.00;0.00;;;;;;;;;;1739061;28;20209;-81
2023/09/25 03:15:38;;;;;;;0.00;0.00;;;;;;;;;;1735443;28;20235;-81
2023/09/25 03:16:30;;;;;;;0.00;0.00;;;;;;;;;;1740223;28;20665;-81
2023/09/25 03:17:21;;;;;;;0.00;0.00;;;;;;;;;;1738423;28;20191;-80
2023/09/25 03:18:13;;;;;;;0.00;0.00;;;;;;;;;;1741057;28;20208;-81
2023/09/25 03:19:04;;;;;;;0.00;0.00;;;;;;;;;;1741157;28;20647;-81
2023/09/25 03:19:55;;;;;;;0.00;0.00;;;;;;;;;;1739419;28;20219;-81
2023/09/25 03:20:47;;;;;;;0.00;0.00;;;;;;;;;;1734463;28;20830;-81
2023/09/25 03:21:40;;;;;;;0.00;0.00;;;;;;;;;;1742250;28;20222;-81
2023/09/25 03:22:31;;;;;;;0.00;0.00;;;;;;;;;;1737528;28;20649;-81
2023/09/25 03:23:23;;;;;;;0.00;0.00;;;;;;;;;;1738849;28;20206;-80
2023/09/25 03:24:14;;;;;;;0.00;0.00;;;;;;;;;;1736339;28;20207;-81
2023/09/25 03:25:05;;;;;;;0.00;0.00;;;;;;;;;;1737538;28;20290;-81
2023/09/25 03:25:57;;;;;;;0.00;0.00;;;;;;;;;;1735218;28;20603;-81
2023/09/25 03:26:51;;;;;;;0.00;0.00;;;;;;;;;;1741523;28;20606;-81
2023/09/25 03:27:44;;;;;;;0.00;0.00;;;;;;;;;;1735516;28;20212;-80
2023/09/25 03:28:35;;;;;;;0.00;0.00;;;;;;;;;;1740053;28;20467;-80
2023/09/25 03:29:27;;;;;;;0.00;0.00;;;;;;;;;;1743760;28;20248;-80
2023/09/25 03:30:18;;;;;;;0.00;0.00;;;;;;;;;;1744404;28;20226;-81
2023/09/25 03:31:10;;;;;;;0.00;0.00;;;;;;;;;;1746290;28;20528;-80
2023/09/25 03:32:02;;;;;;;0.00;0.00;;;;;;;;;;1744015;28;20206;-80
2023/09/25 03:32:54;;;;;;;0.00;0.00;;;;;;;;;;1744883;28;20667;-80
2023/09/25 03:33:46;;;;;;;0.00;0.00;;;;;;;;;;1746973;28;20218;-79
2023/09/25 03:34:38;;;;;;;0.00;0.00;;;;;;;;;;1746925;28;20866;-80
2023/09/25 03:35:29;;;;;;;0.00;0.00;;;;;;;;;;1746068;28;20234;-80
2023/09/25 03:36:21;;;;;;;0.00;0.00;;;;;;;;;;1745020;28;20195;-80
2023/09/25 03:37:12;;;;;;;0.00;0.00;;;;;;;;;;1742751;28;21553;-79
2023/09/25 03:38:05;;;;;;;0.00;0.00;;;;;;;;;;1736910;28;20208;-80
2023/09/25 03:38:56;;;;;;;0.00;0.00;;;;;;;;;;1746095;28;20242;-80
2023/09/25 03:39:47;;;;;;;0.00;0.00;;;;;;;;;;1744144;28;20277;-81
2023/09/25 03:40:39;;;;;;;0.00;0.00;;;;;;;;;;1745482;28;20246;-82
2023/09/25 03:41:30;;;;;;;0.00;0.00;;;;;;;;;;1744935;28;20273;-81
2023/09/25 03:42:22;;;;;;;0.00;0.00;;;;;;;;;;1743579;28;20242;-82
2023/09/25 03:43:14;;;;;;;0.00;0.00;;;;;;;;;;1746026;28;20265;-82
2023/09/25 03:44:05;;;;;;;0.00;0.00;;;;;;;;;;1746154;28;20245;-82
2023/09/25 03:44:57;;;;;;;0.00;0.00;;;;;;;;;;1748447;28;20285;-81
2023/09/25 03:45:49;;;;;;;0.00;0.00;;;;;;;;;;1743302;28;20899;-82
2023/09/25 03:46:40;;;;;;;0.00;0.00;;;;;;;;;;1744557;28;20632;-81
2023/09/25 03:47:32;;;;;;;0.00;0.00;;;;;;;;;;1744251;28;20220;-82
2023/09/25 03:48:23;;;;;;;0.00;0.00;;;;;;;;;;1744111;28;20227;-82
2023/09/25 03:49:14;;;;;;;0.00;0.00;;;;;;;;;;1743672;28;20218;-82
2023/09/25 03:50:07;;;;;;;0.00;0.00;;;;;;;;;;1745785;28;20191;-83
2023/09/25 03:50:58;;;;;;;0.00;0.00;;;;;;;;;;1734703;28;20296;-82
2023/09/25 03:51:50;;;;;;;0.00;0.00;;;;;;;;;;1741409;28;20208;-82
2023/09/25 03:52:43;;;;;;;0.00;0.00;;;;;;;;;;1744337;28;20332;-81
2023/09/25 03:53:35;;;;;;;0.00;0.00;;;;;;;;;;1747817;28;20528;-82
2023/09/25 03:54:26;;;;;;;0.00;0.00;;;;;;;;;;1744684;28;20844;-83
2023/09/25 03:55:18;;;;;;;0.00;0.00;;;;;;;;;;1744085;28;20227;-82
2023/09/25 03:56:09;;;;;;;0.00;0.00;;;;;;;;;;1746965;28;20577;-82
2023/09/25 03:57:00;;;;;;;0.00;0.00;;;;;;;;;;1747632;28;20229;-82
2023/09/25 03:57:53;;;;;;;0.00;0.00;;;;;;;;;;1747068;28;20284;-82
2023/09/25 03:58:44;;;;;;;0.00;0.00;;;;;;;;;;1748073;28;20234;-83
2023/09/25 03:59:36;;;;;;;0.00;0.00;;;;;;;;;;1744119;28;20237;-83
2023/09/25 04:00:27;;;;;;;0.00;0.00;;;;;;;;;;1743589;28;20699;-83
2023/09/25 04:01:19;;;;;;;0.00;0.00;;;;;;;;;;1744086;28;20211;-82
2023/09/25 04:02:10;;;;;;;0.00;0.00;;;;;;;;;;1743652;28;20195;-82
2023/09/25 04:03:02;;;;;;;0.00;0.00;;;;;;;;;;1742853;28;20195;-82
2023/09/25 04:03:53;;;;;;;0.00;0.00;;;;;;;;;;1743532;28;20233;-82
2023/09/25 04:04:45;;;;;;;0.00;0.00;;;;;;;;;;1742599;28;20210;-82
2023/09/25 04:05:37;;;;;;;0.00;0.00;;;;;;;;;;1745579;28;20304;-83
2023/09/25 04:06:28;;;;;;;0.00;0.00;;;;;;;;;;1743849;28;20211;-82
2023/09/25 04:07:20;;;;;;;0.00;0.00;;;;;;;;;;1744170;28;20195;-83
2023/09/25 04:08:11;;;;;;;0.00;0.00;;;;;;;;;;1745457;28;20680;-82
2023/09/25 04:09:03;;;;;;;0.00;0.00;;;;;;;;;;1745916;28;20214;-82
2023/09/25 04:09:55;;;;;;;0.00;0.00;;;;;;;;;;1746854;28;20222;-82
2023/09/25 04:10:47;;;;;;;0.00;0.00;;;;;;;;;;1747427;28;20259;-82
2023/09/25 04:11:38;;;;;;;0.00;0.00;;;;;;;;;;1744411;28;20203;-82
2023/09/25 04:12:30;;;;;;;0.00;0.00;;;;;;;;;;1745450;28;20203;-82
2023/09/25 04:13:22;;;;;;;0.00;0.00;;;;;;;;;;1745596;28;20694;-83
2023/09/25 04:14:15;;;;;;;0.00;0.00;;;;;;;;;;1738226;28;20234;-81
2023/09/25 04:15:08;;;;;;;0.00;0.00;;;;;;;;;;1744543;28;20260;-81
2023/09/25 04:16:00;;;;;;;0.00;0.00;;;;;;;;;;1734856;28;20235;-83
2023/09/25 04:16:54;;;;;;;0.00;0.00;;;;;;;;;;1748355;28;20241;-82
2023/09/25 04:17:46;;;;;;;0.00;0.00;;;;;;;;;;1741048;28;20203;-82
2023/09/25 04:18:38;;;;;;;0.00;0.00;;;;;;;;;;1742819;28;20206;-82
2023/09/25 04:19:29;;;;;;;0.00;0.00;;;;;;;;;;1744026;28;20213;-80
2023/09/25 04:20:25;;;;;;;0.00;0.00;;;;;;;;;;1743106;28;20288;-80
2023/09/25 04:21:17;;;;;;;0.00;0.00;;;;;;;;;;1743927;28;20659;-80
2023/09/25 04:22:08;;;;;;;0.00;0.00;;;;;;;;;;1745190;28;20207;-80
2023/09/25 04:23:00;;;;;;;0.00;0.00;;;;;;;;;;1745377;28;20195;-80
2023/09/25 04:23:51;;;;;;;0.00;0.00;;;;;;;;;;1747026;28;20230;-80
2023/09/25 04:24:42;;;;;;;0.00;0.00;;;;;;;;;;1744593;28;20199;-80
2023/09/25 04:25:35;;;;;;;0.00;0.00;;;;;;;;;;1742669;28;20203;-81
2023/09/25 04:26:26;;;;;;;0.00;0.00;;;;;;;;;;1745226;28;20207;-80
2023/09/25 04:27:17;;;;;;;0.00;0.00;;;;;;;;;;1739380;28;20287;-81
2023/09/25 04:28:11;;;;;;;0.00;0.00;;;;;;;;;;1747548;28;20191;-80
2023/09/25 04:29:04;;;;;;;0.00;0.00;;;;;;;;;;1751913;28;20233;-80
2023/09/25 04:29:55;;;;;;;0.00;0.00;;;;;;;;;;1753675;28;20224;-81
2023/09/25 04:30:47;;;;;;;0.00;0.00;;;;;;;;;;1746843;28;20717;-80
2023/09/25 04:31:38;;;;;;;0.00;0.00;;;;;;;;;;1748941;28;20267;-80
2023/09/25 04:32:30;;;;;;;0.00;0.00;;;;;;;;;;1750000;28;20225;-81
2023/09/25 04:33:22;;;;;;;0.00;0.00;;;;;;;;;;1744848;28;20202;-81
2023/09/25 04:34:13;;;;;;;0.00;0.00;;;;;;;;;;1743626;28;20246;-80
2023/09/25 04:35:07;;;;;;;0.00;0.00;;;;;;;;;;1748234;28;20226;-80
2023/09/25 04:36:01;;;;;;;0.00;0.00;;;;;;;;;;1735580;28;20231;-81
2023/09/25 04:36:52;;;;;;;0.00;0.00;;;;;;;;;;1749081;28;20722;-81
2023/09/25 04:37:43;;;;;;;0.00;0.00;;;;;;;;;;1747175;28;20293;-80
2023/09/25 04:38:36;;;;;;;0.00;0.00;;;;;;;;;;1747349;28;20298;-80
2023/09/25 04:39:27;;;;;;;0.00;0.00;;;;;;;;;;1744438;28;20760;-80
2023/09/25 04:40:22;;;;;;;0.00;0.00;;;;;;;;;;1743186;28;20284;-80
2023/09/25 04:41:14;;;;;;;0.00;0.00;;;;;;;;;;1743830;28;20203;-79
2023/09/25 04:42:09;;;;;;;0.00;0.00;;;;;;;;;;1744434;28;20203;-80
2023/09/25 04:43:00;;;;;;;0.00;0.00;;;;;;;;;;1745344;28;20222;-80
2023/09/25 04:43:52;;;;;;;0.00;0.00;;;;;;;;;;1742743;28;20213;-80
2023/09/25 04:44:45;;;;;;;0.00;0.00;;;;;;;;;;1744137;28;20644;-80
2023/09/25 04:45:36;;;;;;;0.00;0.00;;;;;;;;;;1743100;28;20576;-80
2023/09/25 04:46:28;;;;;;;0.00;0.00;;;;;;;;;;1746818;28;20202;-80
2023/09/25 04:47:19;;;;;;;0.00;0.00;;;;;;;;;;1743487;28;20521;-80
2023/09/25 04:48:10;;;;;;;0.00;0.00;;;;;;;;;;1745900;28;20619;-80
2023/09/25 04:49:02;;;;;;;0.00;0.00;;;;;;;;;;1742940;28;20199;-80
2023/09/25 04:49:53;;;;;;;0.00;0.00;;;;;;;;;;1745477;28;20874;-80
2023/09/25 04:50:45;;;;;;;0.00;0.00;;;;;;;;;;1741637;28;20237;-80
2023/09/25 04:51:36;;;;;;;0.00;0.00;;;;;;;;;;1739806;28;20207;-80
2023/09/25 04:52:28;;;;;;;0.00;0.00;;;;;;;;;;1744381;28;20578;-80
2023/09/25 04:53:20;;;;;;;0.00;0.00;;;;;;;;;;1745401;28;20205;-80
2023/09/25 04:54:11;;;;;;;0.00;0.00;;;;;;;;;;1743695;28;20524;-80
2023/09/25 04:55:06;;;;;;;0.00;0.00;;;;;;;;;;1744940;28;20223;-79
2023/09/25 04:55:58;;;;;;;0.00;0.00;;;;;;;;;;1744628;28;20606;-79
2023/09/25 04:56:49;;;;;;;0.00;0.00;;;;;;;;;;1743931;28;20647;-79
2023/09/25 04:57:40;;;;;;;0.00;0.00;;;;;;;;;;1742614;28;20538;-79
2023/09/25 04:58:32;;;;;;;0.00;0.00;;;;;;;;;;1747508;28;20209;-79
2023/09/25 04:59:24;;;;;;;0.00;0.00;;;;;;;;;;1747486;28;20249;-80
2023/09/25 05:00:17;;;;;;;0.00;0.00;;;;;;;;;;1744302;28;20202;-80
2023/09/25 05:01:09;;;;;;;0.00;0.00;;;;;;;;;;1743144;28;20210;-80
2023/09/25 05:02:00;;;;;;;0.00;0.00;;;;;;;;;;1745232;28;20226;-79
2023/09/25 05:02:52;;;;;;;0.00;0.00;;;;;;;;;;1744578;28;20225;-80
2023/09/25 05:03:44;;;;;;;0.00;0.00;;;;;;;;;;1742459;28;20203;-80
2023/09/25 05:04:36;;;;;;;0.00;0.00;;;;;;;;;;1744627;28;20214;-79
2023/09/25 05:05:28;;;;;;;0.00;0.00;;;;;;;;;;1745790;28;20220;-81
2023/09/25 05:06:19;;;;;;;0.00;0.00;;;;;;;;;;1747964;28;20210;-80
2023/09/25 05:07:11;;;;;;;0.00;0.00;;;;;;;;;;1745207;28;20801;-79
2023/09/25 05:08:03;;;;;;;0.00;0.00;;;;;;;;;;1744960;28;20199;-79
2023/09/25 05:08:54;;;;;;;0.00;0.00;;;;;;;;;;1746497;28;20222;-80
2023/09/25 05:09:45;;;;;;;0.00;0.00;;;;;;;;;;1744155;28;20221;-82
2023/09/25 05:10:37;;;;;;;0.00;0.00;;;;;;;;;;1744510;28;20229;-82